createdAt,value
2023-09-24T00:01:42.086Z,100.00
2023-09-24T00:06:46.184Z,100.00
2023-09-24T00:11:48.449Z,100.00
2023-09-24T00:16:52.562Z,100.00
2023-09-24T00:21:56.735Z,100.00
2023-09-24T00:27:00.970Z,100.00
2023-09-24T00:32:05.314Z,100.00
2023-09-24T00:37:09.206Z,100.00
2023-09-24T00:42:11.482Z,100.00
2023-09-24T00:47:15.691Z,100.00
2023-09-24T00:52:19.831Z,100.00
2023-09-24T00:57:23.974Z,100.00
2023-09-24T01:02:28.239Z,100.00
2023-09-24T01:07:32.282Z,100.00
2023-09-24T01:12:36.456Z,100.00
2023-09-24T01:17:40.686Z,100.00
2023-09-24T01:27:48.959Z,100.00
2023-09-24T01:32:53.225Z,100.00
2023-09-24T01:37:57.283Z,100.00
2023-09-24T01:43:01.512Z,100.00
2023-09-24T01:48:05.691Z,100.00
2023-09-24T01:53:09.790Z,100.00
2023-09-24T01:58:13.935Z,100.00
2023-09-24T02:03:18.173Z,100.00
2023-09-24T02:08:22.330Z,100.00
2023-09-24T02:13:26.433Z,100.00
2023-09-24T02:18:30.677Z,100.00
2023-09-24T02:23:34.778Z,100.00
2023-09-24T02:28:38.869Z,100.00
2023-09-24T02:33:43.126Z,100.00
2023-09-24T02:38:47.296Z,100.00
2023-09-24T02:43:51.362Z,100.00
2023-09-24T02:48:55.549Z,100.00
2023-09-24T02:53:59.723Z,100.00
2023-09-24T02:59:03.898Z,100.00
2023-09-24T03:04:08.168Z,100.00
2023-09-24T03:09:12.224Z,100.00
2023-09-24T03:14:16.326Z,100.00
2023-09-24T03:19:21.982Z,100.00
2023-09-24T03:24:24.705Z,100.00
2023-09-24T03:29:28.838Z,100.00
2023-09-24T03:34:33.000Z,100.00
2023-09-24T03:44:41.407Z,100.00
2023-09-24T03:49:45.518Z,100.00
2023-09-24T03:54:49.687Z,100.00
2023-09-24T03:59:53.861Z,100.00
2023-09-24T04:04:57.978Z,100.00
2023-09-24T04:10:02.155Z,100.00
2023-09-24T04:15:06.318Z,100.00
2023-09-24T04:20:10.437Z,100.00
2023-09-24T04:25:14.623Z,100.00
2023-09-24T04:30:18.853Z,100.00
2023-09-24T04:35:23.068Z,100.00
2023-09-24T04:40:27.125Z,100.00
2023-09-24T04:45:31.288Z,100.00
2023-09-24T04:50:35.425Z,100.00
2023-09-24T04:55:39.597Z,100.00
2023-09-24T05:00:43.758Z,100.00
2023-09-24T05:05:48.026Z,100.00
2023-09-24T05:10:52.072Z,100.00
2023-09-24T05:15:56.259Z,100.00
2023-09-24T05:21:00.496Z,100.00
2023-09-24T05:26:04.584Z,100.00
2023-09-24T05:31:08.783Z,100.00
2023-09-24T05:36:12.931Z,100.00
2023-09-24T05:41:17.069Z,100.00
2023-09-24T05:46:21.270Z,100.00
2023-09-24T05:51:25.373Z,100.00
2023-09-24T05:56:29.562Z,100.00
2023-09-24T06:01:33.786Z,100.00
2023-09-24T06:06:37.898Z,100.00
2023-09-24T06:11:40.198Z,100.00
2023-09-24T06:16:44.360Z,100.00
2023-09-24T06:21:48.482Z,100.00
2023-09-24T06:26:52.637Z,100.00
2023-09-24T06:31:56.821Z,100.00
2023-09-24T06:37:01.014Z,100.00
2023-09-24T06:42:05.201Z,100.00
2023-09-24T06:47:09.306Z,100.00
2023-09-24T06:52:13.463Z,100.00
2023-09-24T06:57:17.601Z,100.00
2023-09-24T07:02:21.762Z,100.00
2023-09-24T07:07:25.925Z,100.00
2023-09-24T07:12:30.375Z,100.00
2023-09-24T07:17:34.349Z,100.00
2023-09-24T07:22:38.406Z,100.00
2023-09-24T07:27:42.601Z,100.00
2023-09-24T07:32:46.764Z,100.00
2023-09-24T07:37:50.900Z,100.00
2023-09-24T07:42:55.099Z,100.00
2023-09-24T07:47:59.263Z,100.00
2023-09-24T07:53:03.356Z,100.00
2023-09-24T07:58:07.560Z,100.00
2023-09-24T08:03:11.781Z,100.00
2023-09-24T08:08:15.893Z,98.66
2023-09-24T08:13:20.044Z,95.16
2023-09-24T08:18:24.388Z,92.86
2023-09-24T08:23:28.380Z,89.34
2023-09-24T08:28:32.563Z,90.20
2023-09-24T08:33:36.737Z,87.32
2023-09-24T08:38:41.034Z,84.25
2023-09-24T08:43:44.972Z,82.96
2023-09-24T08:48:49.450Z,80.10
2023-09-24T08:53:53.485Z,79.01
2023-09-24T08:58:57.485Z,78.82
2023-09-24T09:04:01.787Z,78.66
2023-09-24T09:09:05.909Z,75.69
2023-09-24T09:14:09.957Z,74.54
2023-09-24T09:19:14.143Z,73.26
2023-09-24T09:24:18.310Z,72.25
2023-09-24T09:29:22.433Z,71.69
2023-09-24T09:34:26.608Z,70.07
2023-09-24T09:39:30.770Z,69.39
2023-09-24T09:44:34.916Z,68.72
2023-09-24T09:49:39.088Z,67.19
2023-09-24T09:54:43.187Z,68.51
2023-09-24T09:59:47.448Z,70.58
2023-09-24T10:04:51.556Z,68.37
2023-09-24T10:09:55.746Z,65.72
2023-09-24T10:14:59.920Z,64.39
2023-09-24T10:20:04.038Z,62.06
2023-09-24T10:25:08.226Z,61.05
2023-09-24T10:30:12.506Z,58.14
2023-09-24T10:35:16.533Z,57.44
2023-09-24T10:40:20.671Z,57.01
2023-09-24T10:45:24.839Z,58.13
2023-09-24T10:50:29.018Z,57.24
2023-09-24T10:55:33.230Z,56.48
2023-09-24T11:00:37.420Z,56.12
2023-09-24T11:05:41.476Z,57.60
2023-09-24T11:10:45.621Z,56.89
2023-09-24T11:15:49.857Z,58.62
2023-09-24T11:20:54.053Z,59.93
2023-09-24T11:25:58.095Z,56.06
2023-09-24T11:31:02.322Z,58.47
2023-09-24T11:36:06.483Z,58.14
2023-09-24T11:41:08.909Z,58.44
2023-09-24T11:46:12.956Z,55.98
2023-09-24T11:51:17.101Z,56.32
2023-09-24T11:56:21.182Z,57.63
2023-09-24T12:01:25.382Z,54.71
2023-09-24T12:06:29.607Z,56.64
2023-09-24T12:11:33.667Z,54.23
2023-09-24T12:16:37.815Z,54.97
2023-09-24T12:21:41.961Z,55.58
2023-09-24T12:26:46.134Z,55.01
2023-09-24T12:31:50.301Z,52.71
2023-09-24T12:36:54.458Z,50.73
2023-09-24T12:41:58.659Z,50.22
2023-09-24T12:47:02.812Z,53.38
2023-09-24T12:52:06.951Z,51.56
2023-09-24T12:57:11.150Z,52.01
2023-09-24T13:02:15.286Z,52.20
2023-09-24T13:07:19.425Z,54.14
2023-09-24T13:12:23.596Z,51.59
2023-09-24T13:17:27.803Z,51.29
2023-09-24T13:22:31.884Z,49.89
2023-09-24T13:27:37.548Z,51.13
2023-09-24T13:32:40.277Z,50.28
2023-09-24T13:37:44.332Z,50.65
2023-09-24T13:42:48.570Z,49.18
2023-09-24T13:47:52.716Z,49.20
2023-09-24T13:52:56.843Z,50.66
2023-09-24T13:58:00.992Z,53.29
2023-09-24T14:03:05.243Z,52.88
2023-09-24T14:08:09.316Z,51.71
2023-09-24T14:13:13.470Z,51.54
2023-09-24T14:18:17.746Z,50.26
2023-09-24T14:23:21.802Z,50.21
2023-09-24T14:28:25.942Z,49.93
2023-09-24T14:33:30.173Z,51.97
2023-09-24T14:38:34.265Z,49.88
2023-09-24T14:43:38.408Z,49.10
2023-09-24T14:48:42.657Z,49.71
2023-09-24T14:53:46.900Z,52.31
2023-09-24T14:58:50.917Z,49.06
2023-09-24T15:03:55.153Z,50.98
2023-09-24T15:08:59.220Z,51.82
2023-09-24T15:14:03.406Z,51.11
2023-09-24T15:19:07.518Z,49.51
2023-09-24T15:24:11.705Z,48.65
2023-09-24T15:29:15.841Z,49.26
2023-09-24T15:34:20.157Z,49.25
2023-09-24T15:39:24.223Z,51.86
2023-09-24T15:44:28.319Z,51.52
2023-09-24T15:49:32.485Z,51.83
2023-09-24T15:54:36.685Z,52.37
2023-09-24T15:59:40.792Z,53.37
2023-09-24T16:04:44.968Z,54.74
2023-09-24T16:09:49.171Z,49.07
2023-09-24T16:14:53.321Z,44.51
2023-09-24T16:19:57.430Z,42.04
2023-09-24T16:25:01.606Z,43.28
2023-09-24T16:30:05.845Z,41.61
2023-09-24T16:35:09.940Z,41.81
2023-09-24T16:40:14.109Z,40.59
2023-09-24T16:45:18.331Z,42.95
2023-09-24T16:50:22.428Z,46.61
2023-09-24T16:55:26.561Z,51.21
2023-09-24T17:00:30.807Z,54.53
2023-09-24T17:05:34.988Z,57.61
2023-09-24T17:10:37.206Z,58.07
2023-09-24T17:15:41.375Z,60.05
2023-09-24T17:20:45.479Z,60.05
2023-09-24T17:25:49.633Z,63.03
2023-09-24T17:30:53.770Z,63.36
2023-09-24T17:35:58.021Z,65.78
2023-09-24T17:41:00.237Z,67.25
2023-09-24T17:46:04.411Z,68.65
2023-09-24T17:51:08.568Z,69.22
2023-09-24T17:56:12.669Z,70.84
2023-09-24T18:01:16.948Z,73.59
2023-09-24T18:06:21.340Z,75.94
2023-09-24T18:11:25.157Z,75.89
2023-09-24T18:16:29.458Z,76.56
2023-09-24T18:21:33.571Z,78.36
2023-09-24T18:26:37.629Z,78.95
2023-09-24T18:31:41.896Z,81.25
2023-09-24T18:36:46.014Z,83.37
2023-09-24T18:41:50.198Z,83.79
2023-09-24T18:46:54.302Z,82.49
2023-09-24T18:51:58.470Z,85.61
2023-09-24T18:57:02.682Z,87.80
2023-09-24T19:02:06.857Z,87.41
2023-09-24T19:07:10.940Z,85.86
2023-09-24T19:12:15.117Z,86.34
2023-09-24T19:17:19.245Z,90.15
2023-09-24T19:22:23.436Z,89.10
2023-09-24T19:27:27.647Z,87.59
2023-09-24T19:32:31.738Z,88.57
2023-09-24T19:37:35.933Z,88.71
2023-09-24T19:42:40.111Z,88.70
2023-09-24T19:47:44.412Z,90.86
2023-09-24T19:52:48.402Z,90.57
2023-09-24T19:57:52.575Z,92.08
2023-09-24T20:02:56.761Z,89.66
2023-09-24T20:08:00.923Z,89.16
2023-09-24T20:13:05.027Z,91.89
2023-09-24T20:18:09.323Z,92.53
2023-09-24T20:23:13.358Z,90.24
2023-09-24T20:28:17.576Z,90.88
2023-09-24T20:33:30.319Z,93.76
2023-09-24T20:38:25.971Z,93.07
2023-09-24T20:43:30.027Z,93.76
2023-09-24T20:48:34.206Z,97.10
2023-09-24T20:53:38.391Z,98.16
2023-09-24T20:58:42.508Z,97.03
2023-09-24T21:03:46.704Z,100.00
2023-09-24T21:08:51.049Z,100.00
2023-09-24T21:13:54.971Z,100.00
2023-09-24T21:18:59.135Z,100.00
2023-09-24T21:24:03.370Z,100.00
2023-09-24T21:29:07.452Z,100.00
2023-09-24T21:34:11.693Z,100.00
2023-09-24T21:39:15.834Z,100.00
2023-09-24T21:44:19.938Z,100.00
2023-09-24T21:49:24.116Z,100.00
2023-09-24T21:54:28.270Z,100.00
2023-09-24T21:59:32.461Z,100.00
2023-09-24T22:04:36.801Z,100.00
2023-09-24T22:09:40.786Z,100.00
2023-09-24T22:14:44.928Z,100.00
2023-09-24T22:19:49.097Z,100.00
2023-09-24T22:24:53.218Z,100.00
2023-09-24T22:29:57.419Z,100.00
2023-09-24T22:35:01.542Z,100.00
2023-09-24T22:40:05.747Z,100.00
2023-09-24T22:45:09.942Z,100.00
2023-09-24T22:50:14.060Z,100.00
2023-09-24T22:55:18.219Z,100.00
2023-09-24T23:00:22.408Z,100.00
2023-09-24T23:05:26.514Z,100.00
2023-09-24T23:10:28.866Z,100.00
2023-09-24T23:15:33.050Z,100.00
2023-09-24T23:20:37.115Z,100.00
2023-09-24T23:25:41.255Z,100.00
2023-09-24T23:30:45.651Z,100.00
2023-09-24T23:35:49.569Z,100.00
2023-09-24T23:40:53.760Z,100.00
2023-09-24T23:45:58.007Z,100.00
2023-09-24T23:51:02.153Z,99.82
2023-09-24T23:56:06.260Z,98.20
